Time;durP1;ratioP1;P1;durP2;ratioP2;P2;SDS_P1;SDS_P2;PMS_P1;PMS_P2;Temp;Humidity;BMP_temperature;BMP_pressure;BME280_temperature;BME280_humidity;BME280_pressure;Samples;Min_cycle;Max_cycle;Signal;HPM_P1;HPM_P2
2023/08/03 07:44:20;;;;;;;12.63;2.67;;;23.30;99.90;;;;;;5166234;23;20229;-82
2023/08/03 07:47:13;;;;;;;4.07;2.17;;;23.30;99.90;;;;;;4930907;29;20238;-80
2023/08/03 07:49:47;;;;;;;3.03;2.00;;;23.10;99.90;;;;;;4957499;29;20261;-81
2023/08/03 07:52:23;;;;;;;3.30;1.97;;;23.20;99.90;;;;;;4941732;29;20222;-82
2023/08/03 07:55:12;;;;;;;2.97;1.83;;;23.20;99.90;;;;;;4957432;29;20700;-82
2023/08/03 07:57:43;;;;;;;4.28;1.98;;;23.30;99.90;;;;;;4958008;29;20218;-82
2023/08/03 08:00:20;;;;;;;2.67;1.93;;;23.40;99.90;;;;;;4957393;29;20294;-83
2023/08/03 08:03:12;;;;;;;4.53;2.20;;;23.40;99.90;;;;;;4956761;29;20218;-83
2023/08/03 08:06:20;;;;;;;3.67;1.77;;;23.30;99.90;;;;;;4924613;29;20202;-84
2023/08/03 08:08:59;;;;;;;5.10;2.17;;;23.20;99.90;;;;;;4922559;29;20227;-84
2023/08/03 08:11:49;;;;;;;3.53;2.15;;;23.40;99.90;;;;;;4937213;29;20206;-82
2023/08/03 08:14:27;;;;;;;4.80;1.97;;;23.40;99.90;;;;;;4922317;29;20223;-84
2023/08/03 08:17:10;;;;;;;3.40;2.03;;;23.40;99.90;;;;;;4922727;29;20226;-83
2023/08/03 08:19:47;;;;;;;2.30;1.90;;;23.50;99.90;;;;;;4938839;29;20175;-84
2023/08/03 08:22:18;;;;;;;4.23;1.97;;;23.60;99.90;;;;;;4922353;29;20214;-83
2023/08/03 08:25:21;;;;;;;3.27;1.80;;;23.40;99.90;;;;;;4953956;29;20187;-86
2023/08/03 08:29:01;;;;;;;4.57;2.40;;;23.40;99.90;;;;;;5395545;23;20561;-83
2023/08/03 08:31:54;;;;;;;2.90;1.93;;;23.30;99.90;;;;;;4914869;29;20251;-85
2023/08/03 08:35:03;;;;;;;5.17;1.90;;;23.30;99.90;;;;;;4856489;29;20205;-85
2023/08/03 08:37:41;;;;;;;3.43;2.00;;;23.30;99.90;;;;;;4898873;29;20252;-83
2023/08/03 08:40:29;;;;;;;5.73;2.10;;;23.20;99.90;;;;;;4824615;29;20227;-86
2023/08/03 08:43:17;;;;;;;3.53;2.30;;;23.20;99.90;;;;;;4771583;30;20636;-84
2023/08/03 08:46:36;;;;;;;;;;;;;;;;;;;;;
2023/08/03 08:49:23;;;;;;;4.50;1.93;;;23.10;99.90;;;;;;4958948;23;20249;-85
2023/08/03 08:52:20;;;;;;;5.67;1.77;;;23.10;99.90;;;;;;4929804;29;20222;-86
2023/08/03 09:10:57;;;;;;;4.20;2.10;;;22.40;99.90;;;;;;5573899;23;20607;-86
2023/08/03 09:13:31;;;;;;;4.97;2.17;;;22.30;99.90;;;;;;4936997;29;20298;-86
2023/08/03 09:16:21;;;;;;;5.20;2.20;;;22.30;99.90;;;;;;4940674;29;20218;-84
2023/08/03 09:18:55;;;;;;;4.60;1.93;;;22.30;99.90;;;;;;4940046;29;20248;-84
2023/08/03 09:21:26;;;;;;;5.43;2.03;;;22.20;99.90;;;;;;4925354;29;20183;-85
2023/08/03 09:23:59;;;;;;;4.37;2.17;;;22.10;99.90;;;;;;4940890;29;20230;-85
2023/08/03 09:26:32;;;;;;;2.50;1.73;;;22.00;99.90;;;;;;4941018;29;20641;-85
2023/08/03 09:29:14;;;;;;;4.33;2.00;;;22.10;99.90;;;;;;4939830;29;20210;-83
2023/08/03 09:31:48;;;;;;;4.27;2.00;;;21.90;99.90;;;;;;4925372;29;20570;-87
2023/08/03 09:34:34;;;;;;;3.20;1.90;;;21.80;99.90;;;;;;4940772;29;20190;-87
2023/08/03 09:37:14;;;;;;;5.67;2.00;;;21.60;99.90;;;;;;4940655;29;20219;-87
2023/08/03 09:39:54;;;;;;;5.37;1.80;;;21.50;99.90;;;;;;4940652;29;20597;-84
2023/08/03 09:42:25;;;;;;;5.07;1.90;;;21.40;99.90;;;;;;4956609;29;20215;-86
2023/08/03 09:44:55;;;;;;;3.93;1.80;;;21.30;99.90;;;;;;4956002;29;20172;-86
2023/08/03 09:47:27;;;;;;;2.20;1.40;;;21.20;99.90;;;;;;4940808;29;20305;-85
2023/08/03 09:49:59;;;;;;;9.43;1.83;;;21.30;99.90;;;;;;4941432;29;20298;-84
2023/08/03 09:52:28;;;;;;;4.93;2.07;;;21.30;99.90;;;;;;4924177;29;20287;-85
2023/08/03 09:55:06;;;;;;;2.90;1.60;;;21.20;99.90;;;;;;4955945;29;20218;-85
2023/08/03 09:57:47;;;;;;;4.67;1.77;;;21.20;99.90;;;;;;4939247;29;20229;-84
2023/08/03 10:01:00;;;;;;;6.87;2.30;;;21.40;99.90;;;;;;4937361;29;20191;-87
2023/08/03 10:03:29;;;;;;;8.60;2.20;;;21.40;99.90;;;;;;4876865;29;20259;-81
2023/08/03 10:06:11;;;;;;;6.10;2.00;;;21.20;99.90;;;;;;4939487;29;20201;-85
2023/08/03 10:08:42;;;;;;;6.57;1.93;;;21.30;99.90;;;;;;4907692;29;20235;-82
2023/08/03 10:11:12;;;;;;;5.70;2.20;;;21.20;99.90;;;;;;4939170;29;20203;-85
2023/08/03 10:13:49;;;;;;;5.03;2.17;;;21.10;99.90;;;;;;4908791;29;20222;-84
2023/08/03 10:16:20;;;;;;;3.90;2.03;;;21.00;99.90;;;;;;4938798;29;20232;-84
2023/08/03 10:19:01;;;;;;;3.77;2.03;;;20.90;99.90;;;;;;4923618;29;20310;-85
2023/08/03 10:21:41;;;;;;;4.10;2.07;;;20.80;99.90;;;;;;4922975;29;20709;-83
2023/08/03 10:24:27;;;;;;;3.53;1.80;;;20.70;99.90;;;;;;4919754;29;20195;-85
2023/08/03 10:27:18;;;;;;;4.13;2.07;;;20.80;99.90;;;;;;4922490;29;20219;-83
2023/08/03 10:29:56;;;;;;;2.80;2.00;;;20.60;99.90;;;;;;4924131;29;20203;-85
2023/08/03 10:32:28;;;;;;;3.80;2.13;;;20.60;99.90;;;;;;4920342;29;20258;-85
2023/08/03 10:35:38;;;;;;;6.33;1.90;;;20.70;99.90;;;;;;4940208;29;20202;-86
2023/08/03 10:38:22;;;;;;;5.43;1.90;;;20.80;99.90;;;;;;4939655;29;20225;-88
2023/08/03 10:41:27;;;;;;;5.27;2.00;;;20.80;99.90;;;;;;4955441;29;20289;-86
2023/08/03 10:44:06;;;;;;;3.97;1.93;;;20.60;99.90;;;;;;4924674;29;20203;-85
2023/08/03 10:46:59;;;;;;;3.10;2.00;;;20.50;99.90;;;;;;4939465;29;20175;-84
2023/08/03 10:49:49;;;;;;;3.67;2.10;;;20.50;99.90;;;;;;4940085;29;20172;-85
2023/08/03 10:52:30;;;;;;;4.37;1.80;;;20.50;99.90;;;;;;4941064;29;20254;-83
2023/08/03 10:55:24;;;;;;;4.40;1.90;;;20.50;99.90;;;;;;4940735;29;20191;-84
2023/08/03 10:57:56;;;;;;;3.43;2.00;;;20.40;99.90;;;;;;4939220;29;20658;-82
2023/08/03 11:00:26;;;;;;;4.00;2.00;;;20.40;99.90;;;;;;4940308;29;20463;-85
2023/08/03 11:03:10;;;;;;;2.97;1.80;;;20.50;99.90;;;;;;4939030;29;20219;-82
2023/08/03 11:05:40;;;;;;;5.13;2.13;;;20.40;99.90;;;;;;4940706;29;20176;-84
2023/08/03 11:08:07;;;;;;;10.00;2.67;;;20.40;99.90;;;;;;4924277;29;20215;-84
2023/08/03 11:10:40;;;;;;;3.43;2.07;;;20.40;99.90;;;;;;4939164;29;20191;-80
2023/08/03 11:13:13;;;;;;;4.17;2.20;;;20.40;99.90;;;;;;4937424;29;20254;-81
2023/08/03 11:15:42;;;;;;;4.23;2.07;;;20.50;99.90;;;;;;4939372;29;20218;-80
2023/08/03 11:18:16;;;;;;;5.47;1.77;;;20.40;99.90;;;;;;4954972;29;20655;-81
2023/08/03 11:24:09;;;;;;;4.60;2.00;;;20.20;99.90;;;;;;4938894;29;20202;-79
2023/08/03 11:26:54;;;;;;;3.03;1.73;;;20.10;99.90;;;;;;4923950;29;20194;-80
2023/08/03 11:29:24;;;;;;;3.40;1.80;;;19.90;99.90;;;;;;4954302;29;20286;-80
2023/08/03 11:31:55;;;;;;;3.20;1.80;;;19.90;99.90;;;;;;4937802;29;20557;-81
2023/08/03 11:34:39;;;;;;;2.90;1.67;;;19.80;99.90;;;;;;4938149;29;20608;-81
2023/08/03 11:37:12;;;;;;;2.57;1.70;;;20.10;99.90;;;;;;4938211;29;20574;-80
2023/08/03 11:39:43;;;;;;;6.20;1.90;;;20.00;99.90;;;;;;4938435;29;20191;-81
2023/08/03 11:42:18;;;;;;;4.43;1.93;;;20.00;99.90;;;;;;4938568;29;20274;-81
2023/08/03 11:44:58;;;;;;;2.93;1.97;;;19.90;99.90;;;;;;4938574;29;20445;-80
2023/08/03 11:47:46;;;;;;;3.80;1.80;;;19.90;99.90;;;;;;4938422;29;20488;-82
2023/08/03 11:50:17;;;;;;;3.77;1.90;;;19.80;99.90;;;;;;4939190;29;20190;-80
2023/08/03 11:52:48;;;;;;;4.57;2.20;;;19.80;99.90;;;;;;4953481;29;20218;-79
2023/08/03 11:55:35;;;;;;;10.23;2.30;;;19.70;99.90;;;;;;4922729;29;20199;-80
2023/08/03 11:58:08;;;;;;;6.83;2.27;;;19.70;99.90;;;;;;4923415;29;20613;-80
2023/08/03 12:00:48;;;;;;;4.10;2.07;;;19.80;99.90;;;;;;4938792;29;20262;-83
2023/08/03 12:03:31;;;;;;;2.97;1.80;;;19.90;99.90;;;;;;4938705;29;20273;-80
2023/08/03 12:06:10;;;;;;;3.13;1.97;;;19.90;99.90;;;;;;4923642;29;20191;-80
2023/08/03 12:08:57;;;;;;;9.27;2.57;;;20.00;99.90;;;;;;4938624;29;20225;-80
2023/08/03 12:11:31;;;;;;;5.03;2.30;;;20.10;99.90;;;;;;4938297;29;20179;-81
2023/08/03 12:14:09;;;;;;;3.10;2.20;;;20.20;99.90;;;;;;4953957;29;20194;-80
2023/08/03 12:16:45;;;;;;;4.07;2.40;;;20.20;99.90;;;;;;4953726;29;20317;-81
2023/08/03 12:19:34;;;;;;;3.93;1.90;;;20.20;99.90;;;;;;4938562;29;20186;-82
2023/08/03 12:22:06;;;;;;;3.27;1.80;;;20.20;99.90;;;;;;4941695;29;20288;-81
2023/08/03 12:24:41;;;;;;;3.40;1.93;;;20.20;99.90;;;;;;4927364;29;20195;-79
2023/08/03 12:27:21;;;;;;;9.40;2.80;;;20.20;99.90;;;;;;4926730;29;20629;-80
2023/08/03 12:30:00;;;;;;;3.67;2.10;;;20.30;99.90;;;;;;4888901;29;20208;-80
2023/08/03 12:32:35;;;;;;;4.20;1.90;;;20.20;99.90;;;;;;4887740;29;20242;-80
2023/08/03 12:35:08;;;;;;;3.67;2.10;;;20.30;99.90;;;;;;4902818;29;20204;-79
2023/08/03 12:37:49;;;;;;;3.83;2.10;;;20.10;99.90;;;;;;4886387;29;20224;-81
2023/08/03 12:41:05;;;;;;;3.23;1.97;;;20.10;99.90;;;;;;4885456;29;20207;-81
2023/08/03 12:44:08;;;;;;;4.43;2.00;;;20.30;99.90;;;;;;4885030;29;20228;-79
2023/08/03 12:54:08;;;;;;;3.90;2.20;;;20.60;99.90;;;;;;5662568;23;20304;-81
2023/08/03 13:00:45;;;;;;;5.53;2.70;;;20.50;99.90;;;;;;4995830;23;20239;-83
2023/08/03 13:26:13;;;;;;;4.73;2.53;;;20.40;99.90;;;;;;5637889;23;20231;-80
2023/08/03 13:32:37;;;;;;;3.63;2.47;;;20.50;99.90;;;;;;4903366;23;20244;-82
2023/08/03 13:36:06;;;;;;;4.90;2.80;;;20.30;99.90;;;;;;4869244;29;20563;-80
2023/08/03 13:39:06;;;;;;;5.53;2.60;;;20.20;99.90;;;;;;5049482;24;20239;-81
2023/08/03 13:48:19;;;;;;;;;;;;;;;;;;;;;
2023/08/03 13:59:01;;;;;;;4.07;2.30;;;20.20;99.90;;;;;;5091394;23;20231;-83
2023/08/03 14:02:22;;;;;;;3.70;2.10;;;20.20;99.90;;;;;;4903126;29;20179;-83
2023/08/03 14:11:09;;;;;;;4.63;2.13;;;20.20;99.90;;;;;;4953530;23;20652;-80
2023/08/03 15:22:08;;;;;;;3.83;1.90;;;28.90;99.90;;;;;;4903452;29;20238;-82
2023/08/03 15:24:59;;;;;;;3.03;1.90;;;28.00;99.90;;;;;;4917932;29;20203;-80
2023/08/03 15:27:31;;;;;;;5.63;2.15;;;27.50;99.90;;;;;;4903687;29;20216;-81
2023/08/03 21:43:02;;;;;;;4.97;1.90;;;18.60;99.90;;;;;;5228201;23;20303;-79
2023/08/03 21:46:01;;;;;;;3.43;1.80;;;18.50;99.90;;;;;;4906052;29;20587;-80
2023/08/03 21:49:06;;;;;;;6.17;2.10;;;18.50;99.90;;;;;;4907204;29;20246;-80
2023/08/03 21:53:31;;;;;;;3.20;2.03;;;18.50;99.90;;;;;;4920678;29;20204;-80
2023/08/03 21:56:00;;;;;;;4.23;2.00;;;18.50;99.90;;;;;;4858632;29;20286;-80
2023/08/03 21:59:25;;;;;;;7.60;2.20;;;18.40;99.90;;;;;;4827200;29;20601;-80
2023/08/03 22:02:35;;;;;;;5.10;1.70;;;18.50;99.90;;;;;;5068822;23;20285;-79
2023/08/03 22:06:11;;;;;;;;;;;;;;;;;;;;;
2023/08/03 22:08:52;;;;;;;3.63;1.90;;;18.50;99.90;;;;;;4919912;29;20219;-80
